createdAt,value
2023-03-03T00:01:07.388Z,16.63
2023-03-03T00:03:35.739Z,22.85
2023-03-03T00:06:05.318Z,17.55
2023-03-03T00:08:33.791Z,14.98
2023-03-03T00:11:06.121Z,15.93
2023-03-03T00:13:38.907Z,14.38
2023-03-03T00:16:17.401Z,14.65
2023-03-03T00:18:47.395Z,13.52
2023-03-03T00:21:34.130Z,12.70
2023-03-03T00:24:23.735Z,13.90
2023-03-03T00:26:55.536Z,16.10
2023-03-03T00:29:36.104Z,17.35
2023-03-03T00:32:24.833Z,18.98
2023-03-03T00:34:55.155Z,19.67
2023-03-03T00:37:31.824Z,19.67
2023-03-03T00:40:21.715Z,19.90
2023-03-03T00:42:54.065Z,20.63
2023-03-03T00:45:36.377Z,19.20
2023-03-03T00:48:22.545Z,18.15
2023-03-03T00:50:51.740Z,17.15
2023-03-03T00:53:21.553Z,18.40
2023-03-03T00:55:51.073Z,18.17
2023-03-03T00:58:21.988Z,20.40
2023-03-03T01:00:52.265Z,19.00
2023-03-03T01:03:25.460Z,17.90
2023-03-03T01:05:54.447Z,18.45
2023-03-03T01:08:23.206Z,18.60
2023-03-03T01:10:53.004Z,17.70
2023-03-03T01:13:27.014Z,15.60
2023-03-03T01:15:55.529Z,16.23
2023-03-03T01:18:23.703Z,15.77
2023-03-03T01:20:52.782Z,14.77
2023-03-03T01:23:20.880Z,16.45
2023-03-03T01:25:49.119Z,17.33
2023-03-03T01:28:18.061Z,17.25
2023-03-03T01:30:48.157Z,16.83
2023-03-03T01:33:16.380Z,16.85
2023-03-03T01:35:47.245Z,16.40
2023-03-03T01:38:16.033Z,17.73
2023-03-03T01:40:44.150Z,17.73
2023-03-03T01:43:15.931Z,17.13
2023-03-03T01:46:17.340Z,17.30
2023-03-03T01:48:47.629Z,18.17
2023-03-03T01:51:23.769Z,18.25
2023-03-03T01:53:54.769Z,16.38
2023-03-03T01:56:23.559Z,17.48
2023-03-03T01:58:57.074Z,15.38
2023-03-03T02:01:28.188Z,18.10
2023-03-03T02:03:58.392Z,16.15
2023-03-03T02:06:32.011Z,17.58
2023-03-03T02:09:03.711Z,15.30
2023-03-03T02:11:34.030Z,17.65
2023-03-03T02:14:02.312Z,16.58
2023-03-03T02:16:30.701Z,17.15
2023-03-03T02:19:00.306Z,18.55
2023-03-03T02:21:29.612Z,15.90
2023-03-03T02:24:04.510Z,17.40
2023-03-03T02:26:37.900Z,20.20
2023-03-03T02:29:09.349Z,24.15
2023-03-03T02:31:39.883Z,44.78
2023-03-03T02:34:08.092Z,47.88
2023-03-03T02:36:39.162Z,47.33
2023-03-03T02:39:11.758Z,36.65
2023-03-03T02:41:46.265Z,25.27
2023-03-03T02:44:17.102Z,23.92
2023-03-03T02:46:47.816Z,23.10
2023-03-03T02:49:17.555Z,20.70
2023-03-03T02:51:45.994Z,18.10
2023-03-03T02:54:16.057Z,19.23
2023-03-03T02:56:45.867Z,18.48
2023-03-03T02:59:14.841Z,18.30
2023-03-03T03:01:47.915Z,16.30
2023-03-03T03:04:21.107Z,17.58
2023-03-03T03:06:51.792Z,18.80
2023-03-03T03:09:22.258Z,18.35
2023-03-03T03:11:54.038Z,17.88
2023-03-03T03:14:25.805Z,17.15
2023-03-03T03:16:55.780Z,17.00
2023-03-03T03:19:24.231Z,18.10
2023-03-03T03:21:52.850Z,18.15
2023-03-03T03:24:21.964Z,17.58
2023-03-03T03:26:58.022Z,18.45
2023-03-03T03:29:28.074Z,17.70
2023-03-03T03:31:57.044Z,16.42
2023-03-03T03:34:25.728Z,17.35
2023-03-03T03:36:55.502Z,16.75
2023-03-03T03:39:25.545Z,19.17
2023-03-03T03:41:54.713Z,17.40
2023-03-03T03:44:25.290Z,18.40
2023-03-03T03:46:53.884Z,18.40
2023-03-03T03:49:22.679Z,19.42
2023-03-03T03:51:52.874Z,17.50
2023-03-03T03:54:25.198Z,17.88
2023-03-03T03:56:54.599Z,18.35
2023-03-03T03:59:24.423Z,18.13
2023-03-03T04:01:53.141Z,18.02
2023-03-03T04:04:23.158Z,18.60
2023-03-03T04:06:51.951Z,19.70
2023-03-03T04:09:21.144Z,20.27
2023-03-03T04:11:50.099Z,18.02
2023-03-03T04:14:19.095Z,19.73
2023-03-03T04:16:49.004Z,19.63
2023-03-03T04:19:17.986Z,17.75
2023-03-03T04:21:46.448Z,19.42
2023-03-03T04:24:14.628Z,19.48
2023-03-03T04:26:43.049Z,18.48
2023-03-03T04:29:13.168Z,17.63
2023-03-03T04:31:44.071Z,15.73
2023-03-03T04:34:14.256Z,18.05
2023-03-03T04:36:43.182Z,24.27
2023-03-03T04:39:11.498Z,21.77
2023-03-03T04:41:40.244Z,17.90
2023-03-03T04:44:08.620Z,18.60
2023-03-03T04:46:36.930Z,18.50
2023-03-03T04:49:12.046Z,19.30
2023-03-03T04:51:42.746Z,20.17
2023-03-03T04:54:11.303Z,19.75
2023-03-03T04:56:39.556Z,19.42
2023-03-03T04:59:07.906Z,19.67
2023-03-03T05:01:36.367Z,18.27
2023-03-03T05:04:05.089Z,18.58
2023-03-03T05:06:33.315Z,19.55
2023-03-03T05:09:02.877Z,17.00
2023-03-03T05:11:32.565Z,19.88
2023-03-03T05:14:01.067Z,17.52
2023-03-03T05:16:29.539Z,19.30
2023-03-03T05:18:57.842Z,20.50
2023-03-03T05:21:26.081Z,19.23
2023-03-03T05:23:54.390Z,19.40
2023-03-03T05:26:26.818Z,19.55
2023-03-03T05:28:55.035Z,18.13
2023-03-03T05:31:23.639Z,17.77
2023-03-03T05:33:51.925Z,18.95
2023-03-03T05:36:20.236Z,16.95
2023-03-03T05:38:48.383Z,17.40
2023-03-03T05:41:16.815Z,17.17
2023-03-03T05:43:46.478Z,18.10
2023-03-03T05:46:14.798Z,18.75
2023-03-03T05:48:43.101Z,16.73
2023-03-03T05:51:11.732Z,20.02
2023-03-03T05:53:40.129Z,18.02
2023-03-03T05:56:08.766Z,18.15
2023-03-03T05:58:37.139Z,17.73
2023-03-03T06:01:06.817Z,27.73
2023-03-03T06:03:35.061Z,19.67
2023-03-03T06:06:03.587Z,18.65
2023-03-03T06:08:32.853Z,25.08
2023-03-03T06:11:00.940Z,33.00
2023-03-03T06:13:30.347Z,20.42
2023-03-03T06:15:58.633Z,22.23
2023-03-03T06:18:28.136Z,18.77
2023-03-03T06:20:56.740Z,25.85
2023-03-03T06:23:24.953Z,18.33
2023-03-03T06:25:53.872Z,19.08
2023-03-03T06:28:22.177Z,18.27
2023-03-03T06:30:50.368Z,18.58
2023-03-03T06:33:18.538Z,17.20
2023-03-03T06:35:50.951Z,17.25
2023-03-03T06:38:19.445Z,17.85
2023-03-03T06:40:48.455Z,18.25
2023-03-03T06:43:16.662Z,17.50
2023-03-03T06:45:46.842Z,17.25
2023-03-03T06:48:15.038Z,31.75
2023-03-03T06:50:43.256Z,20.15
2023-03-03T06:53:14.863Z,17.90
2023-03-03T06:55:45.101Z,15.98
2023-03-03T06:58:15.709Z,16.60
2023-03-03T07:00:45.765Z,16.92
2023-03-03T07:03:17.032Z,16.55
2023-03-03T07:05:46.059Z,14.63
2023-03-03T07:08:18.252Z,14.82
2023-03-03T07:10:47.597Z,15.35
2023-03-03T07:13:22.297Z,15.25
2023-03-03T07:15:51.899Z,14.35
2023-03-03T07:18:40.727Z,15.55
2023-03-03T07:21:17.910Z,15.68
2023-03-03T07:23:48.518Z,15.77
2023-03-03T07:26:19.343Z,16.10
2023-03-03T07:28:55.389Z,17.15
2023-03-03T07:31:36.793Z,19.92
2023-03-03T07:34:16.352Z,17.25
2023-03-03T07:36:44.877Z,16.90
2023-03-03T07:39:33.223Z,17.95
2023-03-03T07:42:15.309Z,17.40
2023-03-03T07:44:43.504Z,18.98
2023-03-03T07:47:21.059Z,18.35
2023-03-03T07:49:50.113Z,18.83
2023-03-03T07:52:26.268Z,16.52
2023-03-03T07:54:58.087Z,18.08
2023-03-03T07:57:28.209Z,18.40
2023-03-03T08:00:01.210Z,25.50
2023-03-03T08:02:45.354Z,19.05
2023-03-03T08:05:38.026Z,19.90
2023-03-03T08:08:20.399Z,19.95
2023-03-03T08:10:52.087Z,19.38
2023-03-03T08:13:21.979Z,22.35
2023-03-03T08:15:52.284Z,21.00
2023-03-03T08:18:28.262Z,22.05
2023-03-03T08:20:58.993Z,19.90
2023-03-03T08:23:27.292Z,21.58
2023-03-03T08:25:56.677Z,20.20
2023-03-03T08:28:24.749Z,20.45
2023-03-03T08:31:02.715Z,20.02
2023-03-03T08:33:37.291Z,18.58
2023-03-03T08:36:06.046Z,21.20
2023-03-03T08:38:34.493Z,20.77
2023-03-03T08:41:04.619Z,22.13
2023-03-03T08:43:33.128Z,23.40
2023-03-03T08:46:03.796Z,22.63
2023-03-03T08:48:32.107Z,21.40
2023-03-03T08:51:00.630Z,19.95
2023-03-03T08:53:29.255Z,22.60
2023-03-03T08:55:57.330Z,21.92
2023-03-03T08:58:35.020Z,23.27
2023-03-03T09:01:03.646Z,21.40
2023-03-03T09:03:31.799Z,24.25
2023-03-03T09:05:59.785Z,21.10
2023-03-03T09:08:27.833Z,21.25
2023-03-03T09:10:55.827Z,21.08
2023-03-03T09:13:23.860Z,23.73
2023-03-03T09:15:53.345Z,24.90
2023-03-03T09:18:23.444Z,22.98
2023-03-03T09:20:54.060Z,26.45
2023-03-03T09:23:34.970Z,23.90
2023-03-03T09:26:26.894Z,24.70
2023-03-03T09:28:56.648Z,24.55
2023-03-03T09:31:40.267Z,24.40
2023-03-03T09:34:20.689Z,23.65
2023-03-03T09:36:49.541Z,26.63
2023-03-03T09:39:20.373Z,25.95
2023-03-03T09:42:21.756Z,25.90
2023-03-03T09:45:04.162Z,24.42
2023-03-03T09:47:45.216Z,24.63
2023-03-03T09:50:23.170Z,25.27
2023-03-03T09:52:57.358Z,24.40
2023-03-03T09:55:40.607Z,25.88
2023-03-03T09:58:24.680Z,24.38
2023-03-03T10:01:00.707Z,25.48
2023-03-03T10:04:15.595Z,26.13
2023-03-03T10:06:49.943Z,28.30
2023-03-03T10:09:47.516Z,25.50
2023-03-03T10:12:22.572Z,25.43
2023-03-03T10:15:23.005Z,26.20
2023-03-03T10:17:53.266Z,26.50
2023-03-03T10:20:51.290Z,25.80
2023-03-03T10:23:25.156Z,25.90
2023-03-03T10:26:06.281Z,26.40
2023-03-03T10:28:54.765Z,25.97
2023-03-03T10:31:33.355Z,26.23
2023-03-03T10:34:12.005Z,26.27
2023-03-03T10:36:50.588Z,28.20
2023-03-03T10:39:41.488Z,27.00
2023-03-03T10:42:25.966Z,26.20
2023-03-03T10:45:30.495Z,27.83
2023-03-03T10:48:16.110Z,25.67
2023-03-03T10:50:54.758Z,27.07
2023-03-03T10:53:31.768Z,25.97
2023-03-03T10:56:16.164Z,25.83
2023-03-03T10:58:50.988Z,25.03
2023-03-03T11:01:27.788Z,25.60
2023-03-03T11:04:22.913Z,25.90
2023-03-03T11:06:56.193Z,24.80
2023-03-03T11:09:55.058Z,25.60
2023-03-03T11:12:35.428Z,24.23
2023-03-03T11:15:27.111Z,26.43
2023-03-03T11:18:12.108Z,26.13
2023-03-03T11:20:44.113Z,25.27
2023-03-03T11:23:40.356Z,26.20
2023-03-03T11:26:18.169Z,24.90
2023-03-03T11:28:56.394Z,26.23
2023-03-03T11:31:32.118Z,25.30
2023-03-03T11:34:08.273Z,26.13
2023-03-03T11:36:40.445Z,26.97
2023-03-03T11:39:11.793Z,25.10
2023-03-03T11:41:43.862Z,25.93
2023-03-03T11:44:23.002Z,27.27
2023-03-03T11:46:54.458Z,26.73
2023-03-03T11:49:30.042Z,27.07
2023-03-03T11:52:07.170Z,25.43
2023-03-03T11:54:45.182Z,28.90
2023-03-03T11:57:22.062Z,26.43
2023-03-03T12:00:02.942Z,25.77
2023-03-03T12:03:03.752Z,26.03
2023-03-03T12:05:41.853Z,29.90
2023-03-03T12:08:20.879Z,28.70
2023-03-03T12:10:59.196Z,26.13
2023-03-03T12:13:36.808Z,26.87
2023-03-03T12:16:12.197Z,27.17
2023-03-03T12:19:00.455Z,29.10
2023-03-03T12:21:40.496Z,27.90
2023-03-03T12:24:33.513Z,27.63
2023-03-03T12:27:15.642Z,27.80
2023-03-03T12:29:58.684Z,28.70
2023-03-03T12:32:42.573Z,26.23
2023-03-03T12:35:21.085Z,27.83
2023-03-03T12:37:55.681Z,27.30
2023-03-03T12:40:28.233Z,24.80
2023-03-03T12:43:20.883Z,25.47
2023-03-03T12:45:58.920Z,27.57
2023-03-03T12:48:33.496Z,26.63
2023-03-03T12:51:07.518Z,26.50
2023-03-03T12:53:47.435Z,23.50
2023-03-03T12:56:25.357Z,25.73
2023-03-03T12:59:01.699Z,25.00
2023-03-03T13:01:42.796Z,27.63
2023-03-03T13:04:18.295Z,22.30
2023-03-03T13:06:54.072Z,22.80
2023-03-03T13:09:31.687Z,25.27
2023-03-03T13:12:36.557Z,22.63
2023-03-03T13:15:16.321Z,22.20
2023-03-03T13:17:54.916Z,23.53
2023-03-03T13:20:30.707Z,24.67
2023-03-03T13:23:06.911Z,25.30
2023-03-03T13:25:48.895Z,26.07
2023-03-03T13:28:26.478Z,25.37
2023-03-03T13:30:59.416Z,23.60
2023-03-03T13:33:31.112Z,24.90
2023-03-03T13:36:03.028Z,24.37
2023-03-03T13:38:33.744Z,26.30
2023-03-03T13:41:08.125Z,22.97
2023-03-03T13:43:44.861Z,22.43
2023-03-03T13:46:18.075Z,23.47
2023-03-03T13:49:01.517Z,21.57
2023-03-03T13:51:42.150Z,20.50
2023-03-03T13:54:19.880Z,20.00
2023-03-03T13:57:15.274Z,19.20
2023-03-03T13:59:55.825Z,19.77
2023-03-03T14:02:47.904Z,18.50
2023-03-03T14:05:24.657Z,16.80
2023-03-03T14:07:59.823Z,17.37
2023-03-03T14:10:32.623Z,17.97
2023-03-03T14:13:06.145Z,17.23
2023-03-03T14:15:36.928Z,16.47
2023-03-03T14:18:22.265Z,17.70
2023-03-03T14:20:54.037Z,16.00
2023-03-03T14:23:28.548Z,15.43
2023-03-03T14:26:00.958Z,18.77
2023-03-03T14:28:30.983Z,19.60
2023-03-03T14:31:01.139Z,18.17
2023-03-03T14:33:32.443Z,19.33
2023-03-03T14:36:12.325Z,18.70
2023-03-03T14:38:51.695Z,19.30
2023-03-03T14:41:36.148Z,18.40
2023-03-03T14:44:26.346Z,19.67
2023-03-03T14:47:07.015Z,19.43
2023-03-03T14:49:37.878Z,20.73
2023-03-03T14:52:20.947Z,18.20
2023-03-03T14:54:51.733Z,18.50
2023-03-03T14:57:21.570Z,17.50
2023-03-03T15:00:03.311Z,18.67
2023-03-03T15:02:36.787Z,18.77
2023-03-03T15:05:23.830Z,18.00
2023-03-03T15:07:56.781Z,18.97
2023-03-03T15:10:30.758Z,18.20
2023-03-03T15:12:59.328Z,18.33
2023-03-03T15:15:29.033Z,17.50
2023-03-03T15:18:02.731Z,16.17
2023-03-03T15:20:43.291Z,17.17
2023-03-03T15:23:39.964Z,17.70
2023-03-03T15:26:13.242Z,16.40
2023-03-03T15:28:54.277Z,19.10
2023-03-03T15:31:36.260Z,17.20
2023-03-03T15:34:24.110Z,17.10
2023-03-03T15:36:57.340Z,16.40
2023-03-03T15:39:36.524Z,17.60
2023-03-03T15:42:09.312Z,16.93
2023-03-03T15:44:49.043Z,16.30
2023-03-03T15:47:35.716Z,16.07
2023-03-03T15:50:16.428Z,16.10
2023-03-03T15:53:00.945Z,15.90
2023-03-03T15:55:44.211Z,15.40
2023-03-03T15:58:43.885Z,15.27
2023-03-03T16:01:23.297Z,18.80
2023-03-03T16:03:57.047Z,19.07
2023-03-03T16:06:34.239Z,17.07
2023-03-03T16:09:07.976Z,14.93
2023-03-03T16:11:46.926Z,16.30
2023-03-03T16:14:48.492Z,14.90
2023-03-03T16:17:27.403Z,15.60
2023-03-03T16:20:09.077Z,16.03
2023-03-03T16:22:49.800Z,14.40
2023-03-03T16:25:38.212Z,16.10
2023-03-03T16:28:14.322Z,34.50
2023-03-03T16:30:51.218Z,15.90
2023-03-03T16:33:28.455Z,16.13
2023-03-03T16:36:04.542Z,14.27
2023-03-03T16:38:39.449Z,14.00
2023-03-03T16:41:13.774Z,14.13
2023-03-03T16:43:54.717Z,14.97
2023-03-03T16:46:32.919Z,14.53
2023-03-03T16:49:08.327Z,13.90
2023-03-03T16:51:44.793Z,16.77
2023-03-03T16:54:19.481Z,19.17
2023-03-03T16:56:53.458Z,21.10
2023-03-03T16:59:46.870Z,27.60
2023-03-03T17:02:54.321Z,18.10
2023-03-03T17:05:30.309Z,29.60
2023-03-03T17:08:11.757Z,21.40
2023-03-03T17:10:44.313Z,17.07
2023-03-03T17:13:23.945Z,23.00
2023-03-03T17:16:08.824Z,26.73
2023-03-03T17:18:47.576Z,23.10
2023-03-03T17:21:26.096Z,23.00
2023-03-03T17:24:05.376Z,24.50
2023-03-03T17:26:45.008Z,22.60
2023-03-03T17:29:29.340Z,31.50
2023-03-03T17:32:12.173Z,31.73
2023-03-03T17:34:50.849Z,28.77
2023-03-03T17:37:30.346Z,25.47
2023-03-03T17:40:14.788Z,22.43
2023-03-03T17:42:50.725Z,20.70
2023-03-03T17:45:20.627Z,16.70
2023-03-03T17:48:05.413Z,17.10
2023-03-03T17:50:53.754Z,16.40
2023-03-03T17:53:45.064Z,19.80
2023-03-03T17:56:19.995Z,18.93
2023-03-03T17:59:26.544Z,19.37
2023-03-03T18:02:18.918Z,19.43
2023-03-03T18:05:14.343Z,17.93
2023-03-03T18:07:55.054Z,18.70
2023-03-03T18:10:59.815Z,18.90
2023-03-03T18:14:02.507Z,20.50
2023-03-03T18:16:44.347Z,18.30
2023-03-03T18:19:48.998Z,20.50
2023-03-03T18:22:23.935Z,19.60
2023-03-03T18:24:59.841Z,19.07
2023-03-03T18:27:34.165Z,16.00
2023-03-03T18:30:26.307Z,16.97
2023-03-03T18:33:15.428Z,16.57
2023-03-03T18:35:44.983Z,16.40
2023-03-03T18:38:35.671Z,15.73
2023-03-03T18:41:06.398Z,15.27
2023-03-03T18:43:56.524Z,14.73
2023-03-03T18:46:51.413Z,15.13
2023-03-03T18:49:20.410Z,15.47
2023-03-03T18:52:07.964Z,15.10
2023-03-03T18:54:41.517Z,15.30
2023-03-03T18:57:19.228Z,14.97
2023-03-03T18:59:59.390Z,15.55
2023-03-03T19:02:46.336Z,14.47
2023-03-03T19:05:23.419Z,14.20
2023-03-03T19:07:57.679Z,14.47
2023-03-03T19:10:54.829Z,15.43
2023-03-03T19:14:13.071Z,15.25
2023-03-03T19:16:41.284Z,15.05
2023-03-03T19:19:15.749Z,15.13
2023-03-03T19:21:48.137Z,15.10
2023-03-03T19:24:34.817Z,15.60
2023-03-03T19:27:28.267Z,16.15
2023-03-03T19:30:20.879Z,17.33
2023-03-03T19:33:29.626Z,17.40
2023-03-03T19:36:12.194Z,15.98
2023-03-03T19:38:48.396Z,16.75
2023-03-03T19:41:26.384Z,19.33
2023-03-03T19:44:05.921Z,20.95
2023-03-03T19:46:50.050Z,19.75
2023-03-03T19:49:29.077Z,18.60
2023-03-03T19:52:05.080Z,18.55
2023-03-03T19:54:54.299Z,18.92
2023-03-03T19:57:35.587Z,17.63
2023-03-03T20:00:16.476Z,17.20
2023-03-03T20:02:57.795Z,19.02
2023-03-03T20:05:33.396Z,18.60
2023-03-03T20:08:07.384Z,18.42
2023-03-03T20:10:45.269Z,22.40
2023-03-03T20:13:45.371Z,19.80
2023-03-03T20:16:26.718Z,21.63
2023-03-03T20:19:22.136Z,19.38
2023-03-03T20:22:00.428Z,21.10
2023-03-03T20:24:48.247Z,20.48
2023-03-03T20:27:21.420Z,20.00
2023-03-03T20:30:15.821Z,21.88
2023-03-03T20:33:07.524Z,20.17
2023-03-03T20:35:45.118Z,19.40
2023-03-03T20:38:24.115Z,22.77
2023-03-03T20:40:58.810Z,21.45
2023-03-03T20:43:43.581Z,26.48
2023-03-03T20:46:22.311Z,24.05
2023-03-03T20:49:24.925Z,27.60
2023-03-03T20:52:00.437Z,23.05
2023-03-03T20:54:39.180Z,29.67
2023-03-03T20:57:15.916Z,31.45
2023-03-03T20:59:51.138Z,28.45
2023-03-03T21:02:27.274Z,25.23
2023-03-03T21:05:14.056Z,24.77
2023-03-03T21:07:53.530Z,24.52
2023-03-03T21:10:24.231Z,24.67
2023-03-03T21:12:54.039Z,26.92
2023-03-03T21:15:29.118Z,27.98
2023-03-03T21:17:58.970Z,29.13
2023-03-03T21:20:31.373Z,26.35
2023-03-03T21:23:01.154Z,29.02
2023-03-03T21:25:49.781Z,32.55
2023-03-03T21:28:20.546Z,27.70
2023-03-03T21:31:17.035Z,21.88
2023-03-03T21:33:53.975Z,20.65
2023-03-03T21:36:26.178Z,21.13
2023-03-03T21:38:55.309Z,23.55
2023-03-03T21:41:23.350Z,23.40
2023-03-03T21:43:53.471Z,21.85
2023-03-03T21:46:23.108Z,22.33
2023-03-03T21:48:51.879Z,21.25
2023-03-03T21:51:21.453Z,21.00
2023-03-03T21:53:51.118Z,25.35
2023-03-03T21:56:19.278Z,25.83
2023-03-03T21:58:47.376Z,26.70
2023-03-03T22:01:15.494Z,24.42
2023-03-03T22:03:45.672Z,23.73
2023-03-03T22:06:13.800Z,23.13
2023-03-03T22:08:41.923Z,21.55
2023-03-03T22:11:11.382Z,22.05
2023-03-03T22:13:41.238Z,20.45
2023-03-03T22:16:09.802Z,18.92
2023-03-03T22:18:38.108Z,20.58
2023-03-03T22:21:06.581Z,20.00
2023-03-03T22:23:34.720Z,20.30
2023-03-03T22:26:02.958Z,19.38
2023-03-03T22:28:32.698Z,21.27
2023-03-03T22:31:00.800Z,22.10
2023-03-03T22:33:28.943Z,19.85
2023-03-03T22:35:57.128Z,19.77
2023-03-03T22:38:25.865Z,26.17
2023-03-03T22:40:54.439Z,25.02
2023-03-03T22:43:23.007Z,31.40
2023-03-03T22:45:53.553Z,26.95
2023-03-03T22:48:23.316Z,31.67
2023-03-03T22:50:51.479Z,31.13
2023-03-03T22:53:20.175Z,31.85
2023-03-03T22:55:48.576Z,27.08
2023-03-03T22:58:20.104Z,26.33
2023-03-03T23:00:48.693Z,32.10
2023-03-03T23:03:18.201Z,28.42
2023-03-03T23:05:46.362Z,26.90
2023-03-03T23:08:16.241Z,24.80
2023-03-03T23:10:44.542Z,23.63
2023-03-03T23:13:12.925Z,25.65
2023-03-03T23:15:41.184Z,22.75
2023-03-03T23:18:09.465Z,23.80
2023-03-03T23:20:39.521Z,23.13
2023-03-03T23:23:07.685Z,22.30
2023-03-03T23:25:35.786Z,23.77
2023-03-03T23:28:04.008Z,23.27
2023-03-03T23:30:32.201Z,24.33
2023-03-03T23:33:00.336Z,23.30
2023-03-03T23:35:28.573Z,25.17
2023-03-03T23:37:58.034Z,24.52
2023-03-03T23:40:26.269Z,24.42
2023-03-03T23:42:54.403Z,24.58
2023-03-03T23:45:22.530Z,24.58
2023-03-03T23:47:50.767Z,25.27
2023-03-03T23:50:19.091Z,23.05
2023-03-03T23:52:47.304Z,23.30
2023-03-03T23:55:16.917Z,24.75
2023-03-03T23:57:45.146Z,26.50
